sensor_id;sensor_type;location;lat;lon;timestamp;P1;durP1;ratioP1;P2;durP2;ratioP2
75810;SDS011;64449;50.016;19.954;2022-11-02T00:00:51;19.80;;;11.10;;
75810;SDS011;64449;50.016;19.954;2022-11-02T00:03:16;19.00;;;11.10;;
75810;SDS011;64449;50.016;19.954;2022-11-02T00:05:41;19.30;;;11.20;;
75810;SDS011;64449;50.016;19.954;2022-11-02T00:08:07;16.50;;;10.00;;
75810;SDS011;64449;50.016;19.954;2022-11-02T00:10:32;18.20;;;10.40;;
75810;SDS011;64449;50.016;19.954;2022-11-02T00:12:58;19.60;;;10.60;;
75810;SDS011;64449;50.016;19.954;2022-11-02T00:15:24;20.60;;;10.50;;
75810;SDS011;64449;50.016;19.954;2022-11-02T00:17:52;22.90;;;10.30;;
75810;SDS011;64449;50.016;19.954;2022-11-02T00:20:24;16.40;;;10.00;;
75810;SDS011;64449;50.016;19.954;2022-11-02T00:22:50;16.20;;;9.50;;
75810;SDS011;64449;50.016;19.954;2022-11-02T00:25:23;20.10;;;11.00;;
75810;SDS011;64449;50.016;19.954;2022-11-02T00:27:51;19.70;;;12.40;;
75810;SDS011;64449;50.016;19.954;2022-11-02T00:30:17;23.10;;;13.00;;
75810;SDS011;64449;50.016;19.954;2022-11-02T00:32:42;25.10;;;13.30;;
75810;SDS011;64449;50.016;19.954;2022-11-02T00:35:08;21.50;;;12.80;;
75810;SDS011;64449;50.016;19.954;2022-11-02T00:37:34;26.40;;;15.10;;
75810;SDS011;64449;50.016;19.954;2022-11-02T00:39:59;21.90;;;14.20;;
75810;SDS011;64449;50.016;19.954;2022-11-02T00:42:25;25.00;;;16.10;;
75810;SDS011;64449;50.016;19.954;2022-11-02T00:44:50;25.10;;;15.50;;
75810;SDS011;64449;50.016;19.954;2022-11-02T00:47:15;21.30;;;14.20;;
75810;SDS011;64449;50.016;19.954;2022-11-02T00:49:41;23.70;;;14.40;;
75810;SDS011;64449;50.016;19.954;2022-11-02T00:52:06;27.70;;;14.50;;
75810;SDS011;64449;50.016;19.954;2022-11-02T00:54:31;23.80;;;13.10;;
75810;SDS011;64449;50.016;19.954;2022-11-02T00:56:57;21.70;;;13.20;;
75810;SDS011;64449;50.016;19.954;2022-11-02T00:59:22;23.20;;;12.40;;
75810;SDS011;64449;50.016;19.954;2022-11-02T01:01:48;22.10;;;11.80;;
75810;SDS011;64449;50.016;19.954;2022-11-02T01:04:14;16.20;;;11.10;;
75810;SDS011;64449;50.016;19.954;2022-11-02T01:06:40;21.70;;;11.70;;
75810;SDS011;64449;50.016;19.954;2022-11-02T01:09:07;21.20;;;13.60;;
75810;SDS011;64449;50.016;19.954;2022-11-02T01:11:33;27.70;;;14.00;;
75810;SDS011;64449;50.016;19.954;2022-11-02T01:13:58;20.70;;;12.00;;
75810;SDS011;64449;50.016;19.954;2022-11-02T01:16:24;17.00;;;11.80;;
75810;SDS011;64449;50.016;19.954;2022-11-02T01:18:50;18.30;;;11.40;;
75810;SDS011;64449;50.016;19.954;2022-11-02T01:21:17;16.50;;;10.30;;
75810;SDS011;64449;50.016;19.954;2022-11-02T01:23:43;16.70;;;9.30;;
75810;SDS011;64449;50.016;19.954;2022-11-02T01:26:08;17.70;;;9.70;;
75810;SDS011;64449;50.016;19.954;2022-11-02T01:28:34;17.40;;;9.50;;
75810;SDS011;64449;50.016;19.954;2022-11-02T01:31:00;16.20;;;9.60;;
75810;SDS011;64449;50.016;19.954;2022-11-02T01:33:26;16.50;;;10.20;;
75810;SDS011;64449;50.016;19.954;2022-11-02T01:35:52;15.60;;;8.90;;
75810;SDS011;64449;50.016;19.954;2022-11-02T01:38:19;19.00;;;9.80;;
75810;SDS011;64449;50.016;19.954;2022-11-02T01:40:45;18.10;;;9.90;;
75810;SDS011;64449;50.016;19.954;2022-11-02T01:45:51;13.60;;;9.00;;
75810;SDS011;64449;50.016;19.954;2022-11-02T01:48:22;17.60;;;8.90;;
75810;SDS011;64449;50.016;19.954;2022-11-02T01:50:52;15.90;;;10.40;;
75810;SDS011;64449;50.016;19.954;2022-11-02T01:53:18;15.90;;;8.80;;
75810;SDS011;64449;50.016;19.954;2022-11-02T01:55:43;15.80;;;9.00;;
75810;SDS011;64449;50.016;19.954;2022-11-02T01:58:09;17.70;;;9.30;;
75810;SDS011;64449;50.016;19.954;2022-11-02T02:00:36;18.30;;;10.60;;
75810;SDS011;64449;50.016;19.954;2022-11-02T02:03:05;17.50;;;9.30;;
75810;SDS011;64449;50.016;19.954;2022-11-02T02:08:37;15.60;;;9.60;;
75810;SDS011;64449;50.016;19.954;2022-11-02T02:13:52;17.10;;;10.00;;
75810;SDS011;64449;50.016;19.954;2022-11-02T02:30:49;14.70;;;9.50;;
75810;SDS011;64449;50.016;19.954;2022-11-02T02:33:22;19.40;;;9.50;;
75810;SDS011;64449;50.016;19.954;2022-11-02T02:35:56;16.40;;;9.80;;
75810;SDS011;64449;50.016;19.954;2022-11-02T02:38:35;15.70;;;8.90;;
75810;SDS011;64449;50.016;19.954;2022-11-02T02:43:41;17.50;;;9.10;;
75810;SDS011;64449;50.016;19.954;2022-11-02T02:46:16;16.70;;;9.90;;
75810;SDS011;64449;50.016;19.954;2022-11-02T02:48:46;16.90;;;10.00;;
75810;SDS011;64449;50.016;19.954;2022-11-02T02:51:17;19.20;;;10.50;;
75810;SDS011;64449;50.016;19.954;2022-11-02T02:53:48;17.80;;;10.60;;
75810;SDS011;64449;50.016;19.954;2022-11-02T02:56:18;18.10;;;10.50;;
75810;SDS011;64449;50.016;19.954;2022-11-02T02:58:51;22.90;;;10.80;;
75810;SDS011;64449;50.016;19.954;2022-11-02T03:01:24;16.00;;;9.50;;
75810;SDS011;64449;50.016;19.954;2022-11-02T03:03:51;18.70;;;10.60;;
75810;SDS011;64449;50.016;19.954;2022-11-02T03:08:56;17.10;;;9.70;;
75810;SDS011;64449;50.016;19.954;2022-11-02T03:11:32;18.00;;;9.70;;
75810;SDS011;64449;50.016;19.954;2022-11-02T03:14:15;16.30;;;9.60;;
75810;SDS011;64449;50.016;19.954;2022-11-02T03:22:33;18.80;;;10.10;;
75810;SDS011;64449;50.016;19.954;2022-11-02T03:27:20;18.30;;;10.20;;
75810;SDS011;64449;50.016;19.954;2022-11-02T03:29:53;17.80;;;9.70;;
75810;SDS011;64449;50.016;19.954;2022-11-02T03:35:07;16.20;;;9.50;;
75810;SDS011;64449;50.016;19.954;2022-11-02T03:37:41;15.50;;;8.20;;
75810;SDS011;64449;50.016;19.954;2022-11-02T03:40:27;18.40;;;9.60;;
75810;SDS011;64449;50.016;19.954;2022-11-02T03:42:55;16.80;;;10.60;;
75810;SDS011;64449;50.016;19.954;2022-11-02T03:45:23;18.50;;;10.40;;
75810;SDS011;64449;50.016;19.954;2022-11-02T03:47:57;19.30;;;10.30;;
75810;SDS011;64449;50.016;19.954;2022-11-02T03:50:26;16.10;;;9.60;;
75810;SDS011;64449;50.016;19.954;2022-11-02T03:53:03;17.20;;;10.20;;
75810;SDS011;64449;50.016;19.954;2022-11-02T03:55:35;17.70;;;9.80;;
75810;SDS011;64449;50.016;19.954;2022-11-02T04:00:33;17.60;;;9.50;;
75810;SDS011;64449;50.016;19.954;2022-11-02T04:03:00;17.40;;;10.10;;
75810;SDS011;64449;50.016;19.954;2022-11-02T04:05:29;19.60;;;11.00;;
75810;SDS011;64449;50.016;19.954;2022-11-02T04:07:56;16.90;;;10.30;;
75810;SDS011;64449;50.016;19.954;2022-11-02T04:10:41;16.90;;;9.30;;
75810;SDS011;64449;50.016;19.954;2022-11-02T04:13:27;16.20;;;10.70;;
75810;SDS011;64449;50.016;19.954;2022-11-02T04:16:12;17.10;;;10.70;;
75810;SDS011;64449;50.016;19.954;2022-11-02T04:18:38;19.40;;;10.40;;
75810;SDS011;64449;50.016;19.954;2022-11-02T04:21:23;18.30;;;10.60;;
75810;SDS011;64449;50.016;19.954;2022-11-02T04:23:49;18.00;;;9.90;;
75810;SDS011;64449;50.016;19.954;2022-11-02T04:26:33;17.00;;;9.10;;
75810;SDS011;64449;50.016;19.954;2022-11-02T04:28:58;15.80;;;9.00;;
75810;SDS011;64449;50.016;19.954;2022-11-02T04:31:24;15.20;;;9.70;;
75810;SDS011;64449;50.016;19.954;2022-11-02T04:33:49;18.10;;;9.90;;
75810;SDS011;64449;50.016;19.954;2022-11-02T04:36:15;22.80;;;9.80;;
75810;SDS011;64449;50.016;19.954;2022-11-02T04:38:40;14.60;;;9.20;;
75810;SDS011;64449;50.016;19.954;2022-11-02T04:41:24;20.10;;;10.80;;
75810;SDS011;64449;50.016;19.954;2022-11-02T04:44:09;17.80;;;9.10;;
75810;SDS011;64449;50.016;19.954;2022-11-02T04:46:36;16.50;;;8.60;;
75810;SDS011;64449;50.016;19.954;2022-11-02T04:49:03;18.10;;;9.00;;
75810;SDS011;64449;50.016;19.954;2022-11-02T04:51:29;17.30;;;10.30;;
75810;SDS011;64449;50.016;19.954;2022-11-02T04:53:55;20.10;;;9.60;;
75810;SDS011;64449;50.016;19.954;2022-11-02T04:56:22;16.40;;;9.50;;
75810;SDS011;64449;50.016;19.954;2022-11-02T04:58:51;17.20;;;9.20;;
75810;SDS011;64449;50.016;19.954;2022-11-02T05:01:20;15.10;;;8.60;;
75810;SDS011;64449;50.016;19.954;2022-11-02T05:03:47;15.10;;;9.10;;
75810;SDS011;64449;50.016;19.954;2022-11-02T05:06:14;14.90;;;8.50;;
75810;SDS011;64449;50.016;19.954;2022-11-02T05:08:41;15.40;;;8.90;;
75810;SDS011;64449;50.016;19.954;2022-11-02T05:11:07;18.10;;;8.90;;
75810;SDS011;64449;50.016;19.954;2022-11-02T05:13:33;15.60;;;9.20;;
75810;SDS011;64449;50.016;19.954;2022-11-02T05:15:58;13.10;;;8.70;;
75810;SDS011;64449;50.016;19.954;2022-11-02T05:18:24;17.00;;;9.90;;
75810;SDS011;64449;50.016;19.954;2022-11-02T05:20:51;15.70;;;9.10;;
75810;SDS011;64449;50.016;19.954;2022-11-02T05:23:25;17.80;;;9.50;;
75810;SDS011;64449;50.016;19.954;2022-11-02T05:25:55;16.00;;;8.50;;
75810;SDS011;64449;50.016;19.954;2022-11-02T05:28:23;17.20;;;10.20;;
75810;SDS011;64449;50.016;19.954;2022-11-02T05:30:50;15.80;;;8.50;;
75810;SDS011;64449;50.016;19.954;2022-11-02T05:33:16;21.00;;;9.80;;
75810;SDS011;64449;50.016;19.954;2022-11-02T05:35:43;18.30;;;9.80;;
75810;SDS011;64449;50.016;19.954;2022-11-02T05:38:08;16.20;;;9.10;;
75810;SDS011;64449;50.016;19.954;2022-11-02T05:40:34;18.80;;;9.40;;
75810;SDS011;64449;50.016;19.954;2022-11-02T05:43:02;16.90;;;9.10;;
75810;SDS011;64449;50.016;19.954;2022-11-02T05:45:28;19.50;;;8.90;;
75810;SDS011;64449;50.016;19.954;2022-11-02T05:47:54;15.50;;;9.60;;
75810;SDS011;64449;50.016;19.954;2022-11-02T05:50:20;16.90;;;8.90;;
75810;SDS011;64449;50.016;19.954;2022-11-02T05:52:45;17.70;;;10.50;;
75810;SDS011;64449;50.016;19.954;2022-11-02T05:55:11;16.00;;;9.50;;
75810;SDS011;64449;50.016;19.954;2022-11-02T05:57:37;18.30;;;10.00;;
75810;SDS011;64449;50.016;19.954;2022-11-02T06:00:03;17.70;;;10.70;;
75810;SDS011;64449;50.016;19.954;2022-11-02T06:02:32;17.30;;;9.30;;
75810;SDS011;64449;50.016;19.954;2022-11-02T06:04:58;16.80;;;9.80;;
75810;SDS011;64449;50.016;19.954;2022-11-02T06:07:24;15.60;;;8.80;;
75810;SDS011;64449;50.016;19.954;2022-11-02T06:09:49;16.10;;;9.00;;
75810;SDS011;64449;50.016;19.954;2022-11-02T06:12:14;17.60;;;10.30;;
75810;SDS011;64449;50.016;19.954;2022-11-02T06:14:40;15.30;;;9.20;;
75810;SDS011;64449;50.016;19.954;2022-11-02T06:17:05;16.80;;;10.10;;
75810;SDS011;64449;50.016;19.954;2022-11-02T06:19:30;19.80;;;11.30;;
75810;SDS011;64449;50.016;19.954;2022-11-02T06:21:56;20.20;;;9.30;;
75810;SDS011;64449;50.016;19.954;2022-11-02T06:24:21;17.70;;;10.00;;
75810;SDS011;64449;50.016;19.954;2022-11-02T06:26:47;14.90;;;9.20;;
75810;SDS011;64449;50.016;19.954;2022-11-02T06:29:13;17.10;;;9.60;;
75810;SDS011;64449;50.016;19.954;2022-11-02T06:31:38;15.90;;;8.70;;
75810;SDS011;64449;50.016;19.954;2022-11-02T06:34:03;17.10;;;9.50;;
75810;SDS011;64449;50.016;19.954;2022-11-02T06:36:29;18.90;;;10.50;;
75810;SDS011;64449;50.016;19.954;2022-11-02T06:38:54;20.00;;;10.00;;
75810;SDS011;64449;50.016;19.954;2022-11-02T06:41:20;14.40;;;8.80;;
75810;SDS011;64449;50.016;19.954;2022-11-02T06:43:45;18.20;;;9.10;;
75810;SDS011;64449;50.016;19.954;2022-11-02T06:46:10;17.10;;;9.80;;
75810;SDS011;64449;50.016;19.954;2022-11-02T06:48:36;16.80;;;10.10;;
75810;SDS011;64449;50.016;19.954;2022-11-02T06:51:02;17.60;;;10.00;;
75810;SDS011;64449;50.016;19.954;2022-11-02T06:53:28;15.60;;;9.40;;
75810;SDS011;64449;50.016;19.954;2022-11-02T06:55:54;20.10;;;9.70;;
75810;SDS011;64449;50.016;19.954;2022-11-02T06:58:21;18.70;;;9.70;;
75810;SDS011;64449;50.016;19.954;2022-11-02T07:00:48;21.00;;;10.40;;
75810;SDS011;64449;50.016;19.954;2022-11-02T07:03:14;16.40;;;10.10;;
75810;SDS011;64449;50.016;19.954;2022-11-02T07:05:40;21.20;;;9.60;;
75810;SDS011;64449;50.016;19.954;2022-11-02T07:08:05;20.70;;;10.90;;
75810;SDS011;64449;50.016;19.954;2022-11-02T07:10:31;17.50;;;10.90;;
75810;SDS011;64449;50.016;19.954;2022-11-02T07:12:59;19.20;;;11.70;;
75810;SDS011;64449;50.016;19.954;2022-11-02T07:15:24;18.70;;;10.30;;
75810;SDS011;64449;50.016;19.954;2022-11-02T07:17:51;20.70;;;10.60;;
75810;SDS011;64449;50.016;19.954;2022-11-02T07:20:17;19.70;;;10.50;;
75810;SDS011;64449;50.016;19.954;2022-11-02T07:22:59;20.40;;;10.80;;
75810;SDS011;64449;50.016;19.954;2022-11-02T07:25:26;17.80;;;10.10;;
75810;SDS011;64449;50.016;19.954;2022-11-02T07:27:55;18.30;;;10.20;;
75810;SDS011;64449;50.016;19.954;2022-11-02T07:30:20;16.70;;;9.50;;
75810;SDS011;64449;50.016;19.954;2022-11-02T07:32:46;18.70;;;9.50;;
75810;SDS011;64449;50.016;19.954;2022-11-02T07:35:12;19.10;;;10.20;;
75810;SDS011;64449;50.016;19.954;2022-11-02T07:37:39;20.70;;;11.10;;
75810;SDS011;64449;50.016;19.954;2022-11-02T07:40:05;21.00;;;10.60;;
75810;SDS011;64449;50.016;19.954;2022-11-02T07:42:33;20.40;;;11.00;;
75810;SDS011;64449;50.016;19.954;2022-11-02T07:44:58;19.80;;;11.20;;
75810;SDS011;64449;50.016;19.954;2022-11-02T07:47:24;18.70;;;10.30;;
75810;SDS011;64449;50.016;19.954;2022-11-02T07:49:49;19.40;;;10.30;;
75810;SDS011;64449;50.016;19.954;2022-11-02T07:52:15;18.00;;;10.70;;
75810;SDS011;64449;50.016;19.954;2022-11-02T07:54:40;15.20;;;8.90;;
75810;SDS011;64449;50.016;19.954;2022-11-02T07:57:06;20.60;;;11.70;;
75810;SDS011;64449;50.016;19.954;2022-11-02T07:59:31;16.20;;;9.30;;
75810;SDS011;64449;50.016;19.954;2022-11-02T08:01:56;19.00;;;10.00;;
75810;SDS011;64449;50.016;19.954;2022-11-02T08:04:22;15.10;;;10.20;;
75810;SDS011;64449;50.016;19.954;2022-11-02T08:06:47;16.30;;;9.80;;
75810;SDS011;64449;50.016;19.954;2022-11-02T08:09:13;18.60;;;10.00;;
75810;SDS011;64449;50.016;19.954;2022-11-02T08:11:39;18.30;;;12.40;;
75810;SDS011;64449;50.016;19.954;2022-11-02T08:14:05;13.50;;;9.60;;
75810;SDS011;64449;50.016;19.954;2022-11-02T08:16:31;16.70;;;10.00;;
75810;SDS011;64449;50.016;19.954;2022-11-02T08:18:57;15.00;;;9.90;;
75810;SDS011;64449;50.016;19.954;2022-11-02T08:21:23;14.80;;;10.40;;
75810;SDS011;64449;50.016;19.954;2022-11-02T08:23:49;14.30;;;9.60;;
75810;SDS011;64449;50.016;19.954;2022-11-02T08:26:15;13.80;;;8.10;;
75810;SDS011;64449;50.016;19.954;2022-11-02T08:28:41;15.60;;;9.30;;
75810;SDS011;64449;50.016;19.954;2022-11-02T08:31:08;14.20;;;8.90;;
75810;SDS011;64449;50.016;19.954;2022-11-02T08:33:38;17.80;;;10.10;;
75810;SDS011;64449;50.016;19.954;2022-11-02T08:36:04;17.80;;;9.70;;
75810;SDS011;64449;50.016;19.954;2022-11-02T08:38:30;18.20;;;10.20;;
75810;SDS011;64449;50.016;19.954;2022-11-02T08:40:56;18.30;;;11.10;;
75810;SDS011;64449;50.016;19.954;2022-11-02T08:43:21;18.90;;;11.60;;
75810;SDS011;64449;50.016;19.954;2022-11-02T08:45:47;15.10;;;7.60;;
75810;SDS011;64449;50.016;19.954;2022-11-02T08:48:12;12.80;;;8.10;;
75810;SDS011;64449;50.016;19.954;2022-11-02T08:50:38;13.40;;;8.20;;
75810;SDS011;64449;50.016;19.954;2022-11-02T08:53:04;13.20;;;7.00;;
75810;SDS011;64449;50.016;19.954;2022-11-02T08:55:30;13.90;;;6.60;;
75810;SDS011;64449;50.016;19.954;2022-11-02T08:57:56;17.00;;;8.90;;
75810;SDS011;64449;50.016;19.954;2022-11-02T09:00:23;15.80;;;7.80;;
75810;SDS011;64449;50.016;19.954;2022-11-02T09:03:01;14.00;;;6.60;;
75810;SDS011;64449;50.016;19.954;2022-11-02T09:05:35;17.30;;;8.80;;
75810;SDS011;64449;50.016;19.954;2022-11-02T09:08:03;16.10;;;9.00;;
75810;SDS011;64449;50.016;19.954;2022-11-02T09:10:31;15.00;;;8.50;;
75810;SDS011;64449;50.016;19.954;2022-11-02T09:12:58;13.90;;;8.40;;
75810;SDS011;64449;50.016;19.954;2022-11-02T09:15:25;14.10;;;8.00;;
75810;SDS011;64449;50.016;19.954;2022-11-02T09:17:52;17.70;;;9.00;;
75810;SDS011;64449;50.016;19.954;2022-11-02T09:20:18;13.70;;;8.60;;
75810;SDS011;64449;50.016;19.954;2022-11-02T09:22:45;15.40;;;9.10;;
75810;SDS011;64449;50.016;19.954;2022-11-02T09:25:11;17.50;;;8.70;;
75810;SDS011;64449;50.016;19.954;2022-11-02T09:27:37;13.90;;;8.40;;
75810;SDS011;64449;50.016;19.954;2022-11-02T09:30:03;16.40;;;9.90;;
75810;SDS011;64449;50.016;19.954;2022-11-02T09:32:29;13.80;;;7.80;;
75810;SDS011;64449;50.016;19.954;2022-11-02T09:34:58;11.20;;;7.20;;
75810;SDS011;64449;50.016;19.954;2022-11-02T09:37:25;11.50;;;5.70;;
75810;SDS011;64449;50.016;19.954;2022-11-02T09:39:51;14.80;;;7.30;;
75810;SDS011;64449;50.016;19.954;2022-11-02T09:45:04;12.50;;;6.70;;
75810;SDS011;64449;50.016;19.954;2022-11-02T09:47:34;13.60;;;7.30;;
75810;SDS011;64449;50.016;19.954;2022-11-02T09:50:12;11.20;;;6.80;;
75810;SDS011;64449;50.016;19.954;2022-11-02T09:52:44;12.60;;;5.30;;
75810;SDS011;64449;50.016;19.954;2022-11-02T09:55:14;8.80;;;5.80;;
75810;SDS011;64449;50.016;19.954;2022-11-02T09:57:46;9.10;;;4.90;;
75810;SDS011;64449;50.016;19.954;2022-11-02T10:00:15;8.60;;;4.30;;
75810;SDS011;64449;50.016;19.954;2022-11-02T10:08:13;8.50;;;4.80;;
75810;SDS011;64449;50.016;19.954;2022-11-02T10:10:52;6.80;;;4.30;;
75810;SDS011;64449;50.016;19.954;2022-11-02T10:13:43;10.70;;;4.80;;
75810;SDS011;64449;50.016;19.954;2022-11-02T10:16:44;9.40;;;4.10;;
75810;SDS011;64449;50.016;19.954;2022-11-02T10:19:05;8.90;;;4.20;;
75810;SDS011;64449;50.016;19.954;2022-11-02T10:21:45;10.40;;;5.20;;
75810;SDS011;64449;50.016;19.954;2022-11-02T10:29:45;9.00;;;4.90;;
75810;SDS011;64449;50.016;19.954;2022-11-02T10:32:22;7.80;;;4.70;;
75810;SDS011;64449;50.016;19.954;2022-11-02T10:34:47;8.10;;;4.40;;
75810;SDS011;64449;50.016;19.954;2022-11-02T10:43:11;9.00;;;4.90;;
75810;SDS011;64449;50.016;19.954;2022-11-02T10:45:51;10.10;;;4.80;;
75810;SDS011;64449;50.016;19.954;2022-11-02T10:48:42;7.80;;;4.60;;
75810;SDS011;64449;50.016;19.954;2022-11-02T10:51:20;7.70;;;4.80;;
75810;SDS011;64449;50.016;19.954;2022-11-02T10:53:47;8.70;;;3.60;;
75810;SDS011;64449;50.016;19.954;2022-11-02T10:58:54;8.10;;;4.50;;
75810;SDS011;64449;50.016;19.954;2022-11-02T11:01:27;7.40;;;3.70;;
75810;SDS011;64449;50.016;19.954;2022-11-02T11:06:35;6.90;;;3.70;;
75810;SDS011;64449;50.016;19.954;2022-11-02T11:09:12;7.20;;;3.60;;
75810;SDS011;64449;50.016;19.954;2022-11-02T11:11:40;6.40;;;3.50;;
75810;SDS011;64449;50.016;19.954;2022-11-02T11:14:06;7.20;;;3.20;;
75810;SDS011;64449;50.016;19.954;2022-11-02T11:16:41;10.20;;;3.50;;
75810;SDS011;64449;50.016;19.954;2022-11-02T11:19:32;9.10;;;3.80;;
75810;SDS011;64449;50.016;19.954;2022-11-02T11:22:19;5.50;;;3.30;;
75810;SDS011;64449;50.016;19.954;2022-11-02T11:25:16;6.10;;;3.80;;
75810;SDS011;64449;50.016;19.954;2022-11-02T11:27:55;16.10;;;9.30;;
75810;SDS011;64449;50.016;19.954;2022-11-02T11:35:37;8.00;;;4.60;;
75810;SDS011;64449;50.016;19.954;2022-11-02T11:38:04;9.60;;;3.60;;
75810;SDS011;64449;50.016;19.954;2022-11-02T11:40:55;8.80;;;3.70;;
75810;SDS011;64449;50.016;19.954;2022-11-02T11:43:24;6.60;;;3.20;;
75810;SDS011;64449;50.016;19.954;2022-11-02T11:45:52;13.50;;;7.20;;
75810;SDS011;64449;50.016;19.954;2022-11-02T11:56:53;4.90;;;1.80;;
75810;SDS011;64449;50.016;19.954;2022-11-02T11:59:43;6.10;;;2.50;;
75810;SDS011;64449;50.016;19.954;2022-11-02T12:02:25;4.90;;;2.80;;
75810;SDS011;64449;50.016;19.954;2022-11-02T12:21:12;4.30;;;2.20;;
75810;SDS011;64449;50.016;19.954;2022-11-02T12:40:15;6.90;;;2.80;;
75810;SDS011;64449;50.016;19.954;2022-11-02T12:49:48;8.30;;;3.70;;
75810;SDS011;64449;50.016;19.954;2022-11-02T12:54:54;6.60;;;2.70;;
75810;SDS011;64449;50.016;19.954;2022-11-02T12:57:23;11.20;;;3.40;;
75810;SDS011;64449;50.016;19.954;2022-11-02T12:59:53;3.70;;;1.50;;
75810;SDS011;64449;50.016;19.954;2022-11-02T13:02:24;6.40;;;2.40;;
75810;SDS011;64449;50.016;19.954;2022-11-02T13:04:59;4.80;;;2.20;;
75810;SDS011;64449;50.016;19.954;2022-11-02T13:07:36;4.50;;;2.40;;
75810;SDS011;64449;50.016;19.954;2022-11-02T13:10:18;6.40;;;2.50;;
75810;SDS011;64449;50.016;19.954;2022-11-02T13:12:52;5.00;;;2.60;;
75810;SDS011;64449;50.016;19.954;2022-11-02T13:15:24;5.20;;;2.80;;
75810;SDS011;64449;50.016;19.954;2022-11-02T13:20:41;10.80;;;5.10;;
75810;SDS011;64449;50.016;19.954;2022-11-02T13:25:59;5.60;;;2.90;;
75810;SDS011;64449;50.016;19.954;2022-11-02T13:28:45;5.30;;;2.50;;
75810;SDS011;64449;50.016;19.954;2022-11-02T13:31:14;5.50;;;3.00;;
75810;SDS011;64449;50.016;19.954;2022-11-02T13:33:52;6.10;;;3.70;;
75810;SDS011;64449;50.016;19.954;2022-11-02T13:36:20;8.00;;;4.10;;
75810;SDS011;64449;50.016;19.954;2022-11-02T13:38:54;4.70;;;2.00;;
75810;SDS011;64449;50.016;19.954;2022-11-02T13:50:16;7.30;;;3.30;;
75810;SDS011;64449;50.016;19.954;2022-11-02T13:52:53;5.30;;;3.00;;
75810;SDS011;64449;50.016;19.954;2022-11-02T13:55:49;4.90;;;3.00;;
75810;SDS011;64449;50.016;19.954;2022-11-02T14:00:47;10.20;;;5.70;;
75810;SDS011;64449;50.016;19.954;2022-11-02T14:03:14;11.60;;;7.00;;
75810;SDS011;64449;50.016;19.954;2022-11-02T14:05:50;10.90;;;4.40;;
75810;SDS011;64449;50.016;19.954;2022-11-02T14:21:43;5.40;;;2.70;;
75810;SDS011;64449;50.016;19.954;2022-11-02T14:49:03;6.80;;;4.00;;
75810;SDS011;64449;50.016;19.954;2022-11-02T14:51:38;6.00;;;3.80;;
75810;SDS011;64449;50.016;19.954;2022-11-02T14:56:51;6.30;;;3.50;;
75810;SDS011;64449;50.016;19.954;2022-11-02T14:59:38;5.80;;;2.70;;
75810;SDS011;64449;50.016;19.954;2022-11-02T15:05:38;4.40;;;2.00;;
75810;SDS011;64449;50.016;19.954;2022-11-02T17:34:38;13.40;;;7.70;;
75810;SDS011;64449;50.016;19.954;2022-11-02T17:37:04;12.70;;;8.00;;
75810;SDS011;64449;50.016;19.954;2022-11-02T17:39:30;16.70;;;8.60;;
75810;SDS011;64449;50.016;19.954;2022-11-02T17:41:57;13.40;;;8.70;;
75810;SDS011;64449;50.016;19.954;2022-11-02T17:44:41;13.20;;;7.50;;
75810;SDS011;64449;50.016;19.954;2022-11-02T17:47:13;18.40;;;9.50;;
75810;SDS011;64449;50.016;19.954;2022-11-02T17:49:41;15.50;;;8.20;;
75810;SDS011;64449;50.016;19.954;2022-11-02T17:52:09;16.90;;;9.20;;
75810;SDS011;64449;50.016;19.954;2022-11-02T17:54:37;18.00;;;9.10;;
75810;SDS011;64449;50.016;19.954;2022-11-02T17:57:04;20.00;;;10.00;;
75810;SDS011;64449;50.016;19.954;2022-11-02T17:59:35;19.70;;;8.40;;
75810;SDS011;64449;50.016;19.954;2022-11-02T18:02:00;14.50;;;8.60;;
75810;SDS011;64449;50.016;19.954;2022-11-02T18:04:26;14.90;;;8.30;;
75810;SDS011;64449;50.016;19.954;2022-11-02T18:06:51;15.90;;;9.50;;
75810;SDS011;64449;50.016;19.954;2022-11-02T18:09:16;15.20;;;9.60;;
75810;SDS011;64449;50.016;19.954;2022-11-02T18:11:43;17.80;;;9.90;;
75810;SDS011;64449;50.016;19.954;2022-11-02T18:14:11;16.00;;;8.90;;
75810;SDS011;64449;50.016;19.954;2022-11-02T18:16:38;17.20;;;8.80;;
75810;SDS011;64449;50.016;19.954;2022-11-02T18:19:04;16.00;;;8.40;;
75810;SDS011;64449;50.016;19.954;2022-11-02T18:21:29;19.10;;;9.10;;
75810;SDS011;64449;50.016;19.954;2022-11-02T18:23:54;17.50;;;9.80;;
75810;SDS011;64449;50.016;19.954;2022-11-02T18:26:20;16.70;;;9.30;;
75810;SDS011;64449;50.016;19.954;2022-11-02T18:28:45;17.90;;;8.70;;
75810;SDS011;64449;50.016;19.954;2022-11-02T18:31:10;17.40;;;8.70;;
75810;SDS011;64449;50.016;19.954;2022-11-02T18:33:36;18.10;;;9.10;;
75810;SDS011;64449;50.016;19.954;2022-11-02T18:36:06;16.40;;;9.00;;
75810;SDS011;64449;50.016;19.954;2022-11-02T18:41:05;18.50;;;9.40;;
75810;SDS011;64449;50.016;19.954;2022-11-02T18:43:51;17.30;;;9.30;;
75810;SDS011;64449;50.016;19.954;2022-11-02T18:46:18;16.60;;;9.30;;
75810;SDS011;64449;50.016;19.954;2022-11-02T18:48:44;14.90;;;8.70;;
75810;SDS011;64449;50.016;19.954;2022-11-02T18:51:09;18.20;;;8.70;;
75810;SDS011;64449;50.016;19.954;2022-11-02T18:53:35;17.90;;;9.80;;
75810;SDS011;64449;50.016;19.954;2022-11-02T18:56:01;17.70;;;9.00;;
75810;SDS011;64449;50.016;19.954;2022-11-02T18:58:28;18.70;;;9.00;;
75810;SDS011;64449;50.016;19.954;2022-11-02T19:00:53;17.10;;;9.20;;
75810;SDS011;64449;50.016;19.954;2022-11-02T19:03:18;18.00;;;10.20;;
75810;SDS011;64449;50.016;19.954;2022-11-02T19:05:44;20.70;;;10.30;;
75810;SDS011;64449;50.016;19.954;2022-11-02T19:08:28;19.30;;;9.90;;
75810;SDS011;64449;50.016;19.954;2022-11-02T19:11:12;21.80;;;10.90;;
75810;SDS011;64449;50.016;19.954;2022-11-02T19:13:38;18.20;;;10.10;;
75810;SDS011;64449;50.016;19.954;2022-11-02T19:16:03;17.50;;;10.30;;
75810;SDS011;64449;50.016;19.954;2022-11-02T19:18:29;19.30;;;9.70;;
75810;SDS011;64449;50.016;19.954;2022-11-02T19:20:54;21.40;;;11.00;;
75810;SDS011;64449;50.016;19.954;2022-11-02T19:23:20;19.70;;;10.60;;
75810;SDS011;64449;50.016;19.954;2022-11-02T19:25:49;17.30;;;9.00;;
75810;SDS011;64449;50.016;19.954;2022-11-02T19:28:15;17.60;;;10.60;;
75810;SDS011;64449;50.016;19.954;2022-11-02T19:30:41;17.70;;;9.90;;
75810;SDS011;64449;50.016;19.954;2022-11-02T19:33:06;20.40;;;10.00;;
75810;SDS011;64449;50.016;19.954;2022-11-02T19:35:32;17.00;;;9.80;;
75810;SDS011;64449;50.016;19.954;2022-11-02T19:37:57;17.90;;;9.40;;
75810;SDS011;64449;50.016;19.954;2022-11-02T19:40:23;18.10;;;8.80;;
75810;SDS011;64449;50.016;19.954;2022-11-02T19:42:48;17.20;;;8.90;;
75810;SDS011;64449;50.016;19.954;2022-11-02T19:45:13;18.00;;;9.80;;
75810;SDS011;64449;50.016;19.954;2022-11-02T19:47:41;18.10;;;9.10;;
75810;SDS011;64449;50.016;19.954;2022-11-02T19:50:08;16.10;;;9.40;;
75810;SDS011;64449;50.016;19.954;2022-11-02T19:52:34;15.30;;;9.40;;
75810;SDS011;64449;50.016;19.954;2022-11-02T19:54:59;20.10;;;9.90;;
75810;SDS011;64449;50.016;19.954;2022-11-02T19:57:24;20.90;;;9.90;;
75810;SDS011;64449;50.016;19.954;2022-11-02T19:59:50;29.30;;;14.10;;
75810;SDS011;64449;50.016;19.954;2022-11-02T20:02:15;20.60;;;12.70;;